BWA236 TNCM-TNCC
Flight info
| Callsign | BWA236 |
|---|---|
| Flight time | 1h 17m |
| Altitude | 38000 |
| Route | PJM M576 MILOK UM576 ACORA ACORA1B |
| Aircraft | B738/M-SDE2E3FGHIRWXY/LB1 |
Departure
| Time | 2026-05-08 01:54 |
|---|---|
| Airport | Princess Juliana International Airport (TNCM) |
Arrival
| Time | 2026-05-08 03:11 |
|---|---|
| Airport | Hato International Airport (TNCC) |
| Time | Latitude | Longitude | Altitude | Speed | Heading |
|---|---|---|---|---|---|
| 2026-05-08 01:25 | 18.04341 | -63.11293 | 20 ft | 0 kts | 351° |
| 2026-05-08 01:48 | 18.04324 | -63.11291 | 21 ft | 1 kts | 351° |
| 2026-05-08 01:48 | 18.04314 | -63.11289 | 21 ft | 2 kts | 339° |
| 2026-05-08 01:48 | 18.04301 | -63.11280 | 21 ft | 2 kts | 313° |
| 2026-05-08 01:48 | 18.04293 | -63.11267 | 21 ft | 2 kts | 288° |
| 2026-05-08 01:49 | 18.04291 | -63.11251 | 21 ft | 2 kts | 263° |
| 2026-05-08 01:49 | 18.04292 | -63.11244 | 21 ft | 1 kts | 252° |
| 2026-05-08 01:49 | 18.04293 | -63.11241 | 21 ft | 0 kts | 255° |
| 2026-05-08 01:50 | 18.04293 | -63.11242 | 21 ft | 0 kts | 255° |
| 2026-05-08 01:50 | 18.04290 | -63.11253 | 21 ft | 3 kts | 255° |
| 2026-05-08 01:51 | 18.04248 | -63.11290 | 21 ft | 8 kts | 198° |
| 2026-05-08 01:51 | 18.04205 | -63.11318 | 21 ft | 7 kts | 263° |
| 2026-05-08 01:51 | 18.04187 | -63.11436 | 21 ft | 25 kts | 261° |
| 2026-05-08 01:51 | 18.04107 | -63.11626 | 22 ft | 28 kts | 232° |
| 2026-05-08 01:52 | 18.04046 | -63.11809 | 23 ft | 20 kts | 262° |
| 2026-05-08 01:52 | 18.04009 | -63.11936 | 23 ft | 14 kts | 234° |
| 2026-05-08 01:52 | 18.03995 | -63.11953 | 23 ft | 0 kts | 223° |
| 2026-05-08 01:52 | 18.03994 | -63.11954 | 23 ft | 0 kts | 218° |
| 2026-05-08 01:53 | 18.03963 | -63.11932 | 23 ft | 13 kts | 119° |
| 2026-05-08 01:53 | 18.03961 | -63.11849 | 23 ft | 11 kts | 85° |
| 2026-05-08 01:53 | 18.03998 | -63.11564 | 22 ft | 77 kts | 81° |
| 2026-05-08 01:53 | 18.04114 | -63.10764 | 21 ft | 142 kts | 81° |
| 2026-05-08 01:54 | 18.04276 | -63.09578 | 229 ft | 175 kts | 84° |
| 2026-05-08 01:54 | 18.04350 | -63.08389 | 1235 ft | 158 kts | 87° |
| 2026-05-08 01:54 | 18.04130 | -63.07273 | 1823 ft | 167 kts | 114° |
| 2026-05-08 01:54 | 18.03276 | -63.06363 | 2292 ft | 187 kts | 144° |
| 2026-05-08 01:55 | 18.02014 | -63.05787 | 2700 ft | 207 kts | 161° |
| 2026-05-08 01:55 | 18.00519 | -63.05759 | 3140 ft | 228 kts | 194° |
| 2026-05-08 01:55 | 17.99166 | -63.06725 | 3524 ft | 249 kts | 231° |
| 2026-05-08 01:55 | 17.98216 | -63.08334 | 3988 ft | 266 kts | 243° |
| 2026-05-08 01:56 | 17.97354 | -63.10102 | 4545 ft | 279 kts | 243° |
| 2026-05-08 01:56 | 17.96420 | -63.11940 | 5159 ft | 289 kts | 242° |
| 2026-05-08 01:56 | 17.95437 | -63.13782 | 5968 ft | 291 kts | 241° |
| 2026-05-08 01:56 | 17.94427 | -63.15630 | 6741 ft | 295 kts | 241° |
| 2026-05-08 01:57 | 17.93407 | -63.17487 | 7545 ft | 297 kts | 242° |
| 2026-05-08 01:57 | 17.92375 | -63.19372 | 8325 ft | 301 kts | 242° |
| 2026-05-08 01:57 | 17.91339 | -63.21264 | 9202 ft | 301 kts | 241° |
| 2026-05-08 01:57 | 17.90179 | -63.23102 | 10021 ft | 305 kts | 233° |
| 2026-05-08 01:58 | 17.88772 | -63.24808 | 10670 ft | 316 kts | 228° |
| 2026-05-08 01:58 | 17.87201 | -63.26496 | 11166 ft | 331 kts | 226° |
| 2026-05-08 01:58 | 17.85537 | -63.28236 | 11639 ft | 346 kts | 227° |
| 2026-05-08 01:58 | 17.83803 | -63.30071 | 12076 ft | 362 kts | 227° |
| 2026-05-08 01:59 | 17.82006 | -63.32004 | 12514 ft | 377 kts | 227° |
| 2026-05-08 01:59 | 17.80145 | -63.34026 | 12908 ft | 392 kts | 228° |
| 2026-05-08 01:59 | 17.78215 | -63.36136 | 13298 ft | 407 kts | 228° |
| 2026-05-08 01:59 | 17.76246 | -63.38288 | 14071 ft | 409 kts | 228° |
| 2026-05-08 02:00 | 17.74263 | -63.40455 | 14680 ft | 417 kts | 228° |
| 2026-05-08 02:00 | 17.72223 | -63.42683 | 15075 ft | 430 kts | 228° |
| 2026-05-08 02:00 | 17.70149 | -63.44946 | 15813 ft | 433 kts | 228° |
| 2026-05-08 02:00 | 17.68050 | -63.47235 | 16459 ft | 438 kts | 227° |
| 2026-05-08 02:01 | 17.65928 | -63.49547 | 17106 ft | 442 kts | 227° |
| 2026-05-08 02:01 | 17.63784 | -63.51882 | 17750 ft | 447 kts | 227° |
| 2026-05-08 02:01 | 17.61617 | -63.54242 | 18274 ft | 454 kts | 227° |
| 2026-05-08 02:01 | 17.59418 | -63.56635 | 18872 ft | 458 kts | 227° |
| 2026-05-08 02:02 | 17.57192 | -63.59058 | 19397 ft | 464 kts | 227° |
| 2026-05-08 02:02 | 17.54941 | -63.61506 | 19915 ft | 470 kts | 227° |
| 2026-05-08 02:02 | 17.52660 | -63.63985 | 20473 ft | 475 kts | 227° |
| 2026-05-08 02:02 | 17.50347 | -63.66498 | 20967 ft | 481 kts | 226° |
| 2026-05-08 02:03 | 17.47993 | -63.69008 | 21540 ft | 484 kts | 225° |
| 2026-05-08 02:03 | 17.45575 | -63.71508 | 21949 ft | 492 kts | 224° |
| 2026-05-08 02:03 | 17.43116 | -63.74002 | 22514 ft | 494 kts | 224° |
| 2026-05-08 02:03 | 17.40622 | -63.76511 | 23007 ft | 499 kts | 224° |
| 2026-05-08 02:04 | 17.38110 | -63.79035 | 23575 ft | 502 kts | 224° |
| 2026-05-08 02:04 | 17.35597 | -63.81561 | 24298 ft | 501 kts | 224° |
| 2026-05-08 02:04 | 17.33103 | -63.84075 | 25163 ft | 496 kts | 225° |
| 2026-05-08 02:04 | 17.30632 | -63.86568 | 25934 ft | 494 kts | 225° |
| 2026-05-08 02:05 | 17.28171 | -63.89055 | 26649 ft | 492 kts | 226° |
| 2026-05-08 02:05 | 17.25717 | -63.91539 | 27363 ft | 490 kts | 226° |
| 2026-05-08 02:05 | 17.23276 | -63.94014 | 28056 ft | 489 kts | 226° |
| 2026-05-08 02:05 | 17.20841 | -63.96484 | 28713 ft | 488 kts | 227° |
| 2026-05-08 02:06 | 17.18412 | -63.98946 | 29349 ft | 487 kts | 227° |
| 2026-05-08 02:06 | 17.15981 | -64.01410 | 29904 ft | 487 kts | 227° |
| 2026-05-08 02:06 | 17.13551 | -64.03871 | 30426 ft | 487 kts | 227° |
| 2026-05-08 02:06 | 17.11117 | -64.06336 | 30871 ft | 489 kts | 226° |
| 2026-05-08 02:07 | 17.08670 | -64.08813 | 31292 ft | 491 kts | 226° |
| 2026-05-08 02:07 | 17.06217 | -64.11294 | 31775 ft | 491 kts | 226° |
| 2026-05-08 02:07 | 17.03772 | -64.13768 | 32305 ft | 490 kts | 226° |
| 2026-05-08 02:07 | 17.01328 | -64.16239 | 32805 ft | 489 kts | 226° |
| 2026-05-08 02:08 | 16.98886 | -64.18707 | 33293 ft | 489 kts | 226° |
| 2026-05-08 02:08 | 16.96449 | -64.21171 | 33823 ft | 488 kts | 226° |
| 2026-05-08 02:08 | 16.94021 | -64.23622 | 34514 ft | 483 kts | 226° |
| 2026-05-08 02:08 | 16.91622 | -64.26041 | 35188 ft | 478 kts | 226° |
| 2026-05-08 02:09 | 16.89234 | -64.28447 | 35694 ft | 477 kts | 226° |
| 2026-05-08 02:09 | 16.86847 | -64.30854 | 36023 ft | 478 kts | 226° |
| 2026-05-08 02:09 | 16.84461 | -64.33259 | 36498 ft | 476 kts | 226° |
| 2026-05-08 02:09 | 16.82087 | -64.35650 | 36991 ft | 474 kts | 226° |
| 2026-05-08 02:10 | 16.79719 | -64.38033 | 37379 ft | 473 kts | 226° |
| 2026-05-08 02:10 | 16.77350 | -64.40419 | 37740 ft | 473 kts | 226° |
| 2026-05-08 02:10 | 16.74988 | -64.42797 | 38023 ft | 473 kts | 226° |
| 2026-05-08 02:10 | 16.72612 | -64.45191 | 38028 ft | 477 kts | 226° |
| 2026-05-08 02:11 | 16.67849 | -64.49986 | 38028 ft | 473 kts | 226° |
| 2026-05-08 02:11 | 16.63135 | -64.54718 | 38029 ft | 467 kts | 226° |
| 2026-05-08 02:12 | 16.58458 | -64.59418 | 38029 ft | 467 kts | 226° |
| 2026-05-08 02:12 | 16.53759 | -64.64134 | 38028 ft | 471 kts | 226° |
| 2026-05-08 02:13 | 16.49033 | -64.68869 | 38028 ft | 470 kts | 226° |
| 2026-05-08 02:13 | 16.44318 | -64.73592 | 38029 ft | 470 kts | 226° |
| 2026-05-08 02:14 | 16.39593 | -64.78322 | 38029 ft | 471 kts | 226° |
| 2026-05-08 02:14 | 16.34867 | -64.83049 | 38029 ft | 470 kts | 226° |
| 2026-05-08 02:15 | 16.30151 | -64.87764 | 38029 ft | 470 kts | 226° |
| 2026-05-08 02:15 | 16.25431 | -64.92481 | 38028 ft | 470 kts | 226° |
| 2026-05-08 02:16 | 16.20713 | -64.97195 | 38028 ft | 470 kts | 226° |
| 2026-05-08 02:16 | 16.15993 | -65.01902 | 38029 ft | 470 kts | 226° |
| 2026-05-08 02:17 | 16.11277 | -65.06599 | 38028 ft | 469 kts | 226° |
| 2026-05-08 02:17 | 16.06564 | -65.11289 | 38029 ft | 469 kts | 226° |
| 2026-05-08 02:18 | 16.01839 | -65.15992 | 38029 ft | 471 kts | 226° |
| 2026-05-08 02:18 | 15.97109 | -65.20694 | 38027 ft | 470 kts | 226° |
| 2026-05-08 02:19 | 15.92390 | -65.25381 | 38027 ft | 469 kts | 226° |
| 2026-05-08 02:19 | 15.87665 | -65.30073 | 38028 ft | 470 kts | 226° |
| 2026-05-08 02:20 | 15.82956 | -65.34749 | 38023 ft | 468 kts | 226° |
| 2026-05-08 02:20 | 15.78243 | -65.39431 | 38027 ft | 470 kts | 226° |
| 2026-05-08 02:21 | 15.73505 | -65.44129 | 38025 ft | 470 kts | 226° |
| 2026-05-08 02:21 | 15.68784 | -65.48802 | 38024 ft | 468 kts | 226° |
| 2026-05-08 02:22 | 15.64074 | -65.53476 | 38024 ft | 469 kts | 226° |
| 2026-05-08 02:22 | 15.59359 | -65.58169 | 38021 ft | 470 kts | 226° |
| 2026-05-08 02:23 | 15.54645 | -65.62857 | 38019 ft | 469 kts | 226° |
| 2026-05-08 02:23 | 15.49941 | -65.67525 | 38018 ft | 469 kts | 226° |
| 2026-05-08 02:24 | 15.45232 | -65.72193 | 38017 ft | 467 kts | 226° |
| 2026-05-08 02:24 | 15.40549 | -65.76839 | 38014 ft | 466 kts | 226° |
| 2026-05-08 02:25 | 15.35863 | -65.81487 | 38015 ft | 467 kts | 226° |
| 2026-05-08 02:25 | 15.31160 | -65.86144 | 38015 ft | 467 kts | 226° |
| 2026-05-08 02:26 | 15.26461 | -65.90774 | 38016 ft | 466 kts | 226° |
| 2026-05-08 02:26 | 15.21727 | -65.95370 | 38016 ft | 468 kts | 225° |
| 2026-05-08 02:27 | 15.16963 | -65.99979 | 38009 ft | 467 kts | 225° |
| 2026-05-08 02:27 | 15.12169 | -66.04617 | 38011 ft | 476 kts | 225° |
| 2026-05-08 02:28 | 15.07273 | -66.09361 | 38009 ft | 487 kts | 225° |
| 2026-05-08 02:28 | 15.02251 | -66.14203 | 38007 ft | 493 kts | 225° |
| 2026-05-08 02:29 | 14.97166 | -66.18979 | 38004 ft | 490 kts | 224° |
| 2026-05-08 02:29 | 14.92105 | -66.23685 | 38004 ft | 488 kts | 224° |
| 2026-05-08 02:30 | 14.87046 | -66.28393 | 38000 ft | 489 kts | 225° |
| 2026-05-08 02:30 | 14.81979 | -66.33112 | 38005 ft | 490 kts | 225° |
| 2026-05-08 02:31 | 14.76909 | -66.37846 | 38000 ft | 491 kts | 224° |
| 2026-05-08 02:31 | 14.71835 | -66.42581 | 38001 ft | 491 kts | 225° |
| 2026-05-08 02:32 | 14.66772 | -66.47307 | 38000 ft | 489 kts | 225° |
| 2026-05-08 02:32 | 14.61721 | -66.52020 | 37997 ft | 489 kts | 225° |
| 2026-05-08 02:33 | 14.56652 | -66.56749 | 38001 ft | 492 kts | 225° |
| 2026-05-08 02:33 | 14.51573 | -66.61483 | 37999 ft | 490 kts | 225° |
| 2026-05-08 02:34 | 14.46518 | -66.66191 | 37999 ft | 490 kts | 224° |
| 2026-05-08 02:34 | 14.41547 | -66.71012 | 37997 ft | 490 kts | 227° |
| 2026-05-08 02:35 | 14.36776 | -66.76017 | 37995 ft | 489 kts | 229° |
| 2026-05-08 02:35 | 14.32043 | -66.81052 | 37995 ft | 489 kts | 229° |
| 2026-05-08 02:36 | 14.27293 | -66.86066 | 37996 ft | 489 kts | 229° |
| 2026-05-08 02:36 | 14.22514 | -66.91070 | 37992 ft | 490 kts | 228° |
| 2026-05-08 02:37 | 14.17733 | -66.96049 | 37991 ft | 488 kts | 228° |
| 2026-05-08 02:37 | 14.12937 | -67.01035 | 37991 ft | 487 kts | 228° |
| 2026-05-08 02:38 | 14.08140 | -67.06020 | 37990 ft | 490 kts | 228° |
| 2026-05-08 02:38 | 14.03329 | -67.11015 | 37986 ft | 490 kts | 228° |
| 2026-05-08 02:39 | 13.98534 | -67.15988 | 37986 ft | 490 kts | 228° |
| 2026-05-08 02:39 | 13.93726 | -67.20972 | 37985 ft | 491 kts | 228° |
| 2026-05-08 02:40 | 13.88912 | -67.25953 | 37986 ft | 489 kts | 229° |
| 2026-05-08 02:40 | 13.84108 | -67.30927 | 37987 ft | 490 kts | 229° |
| 2026-05-08 02:41 | 13.79303 | -67.35897 | 37982 ft | 489 kts | 229° |
| 2026-05-08 02:41 | 13.74489 | -67.40874 | 37980 ft | 489 kts | 229° |
| 2026-05-08 02:42 | 13.69688 | -67.45837 | 37988 ft | 490 kts | 229° |
| 2026-05-08 02:42 | 13.65135 | -67.51030 | 37985 ft | 487 kts | 236° |
| 2026-05-08 02:43 | 13.61187 | -67.56611 | 37742 ft | 477 kts | 239° |
| 2026-05-08 02:43 | 13.59347 | -67.59409 | 37325 ft | 469 kts | 240° |
| 2026-05-08 02:43 | 13.57553 | -67.62182 | 36802 ft | 464 kts | 241° |
| 2026-05-08 02:44 | 13.55778 | -67.64936 | 36188 ft | 462 kts | 241° |
| 2026-05-08 02:44 | 13.54011 | -67.67674 | 35532 ft | 460 kts | 240° |
| 2026-05-08 02:44 | 13.52247 | -67.70396 | 35032 ft | 455 kts | 240° |
| 2026-05-08 02:44 | 13.50502 | -67.73075 | 34557 ft | 450 kts | 240° |
| 2026-05-08 02:45 | 13.48770 | -67.75727 | 34050 ft | 445 kts | 240° |
| 2026-05-08 02:45 | 13.47051 | -67.78355 | 33551 ft | 441 kts | 240° |
| 2026-05-08 02:45 | 13.45349 | -67.80954 | 33047 ft | 437 kts | 240° |
| 2026-05-08 02:45 | 13.43661 | -67.83527 | 32562 ft | 433 kts | 240° |
| 2026-05-08 02:46 | 13.41984 | -67.86083 | 32100 ft | 430 kts | 240° |
| 2026-05-08 02:46 | 13.40317 | -67.88622 | 31609 ft | 427 kts | 240° |
| 2026-05-08 02:46 | 13.38662 | -67.91142 | 31110 ft | 425 kts | 240° |
| 2026-05-08 02:46 | 13.37014 | -67.93651 | 30617 ft | 423 kts | 239° |
| 2026-05-08 02:47 | 13.35374 | -67.96147 | 30114 ft | 421 kts | 239° |
| 2026-05-08 02:47 | 13.33740 | -67.98630 | 29607 ft | 419 kts | 240° |
| 2026-05-08 02:47 | 13.32111 | -68.01103 | 29111 ft | 417 kts | 239° |
| 2026-05-08 02:47 | 13.30490 | -68.03564 | 28609 ft | 416 kts | 239° |
| 2026-05-08 02:48 | 13.28877 | -68.06010 | 28121 ft | 414 kts | 239° |
| 2026-05-08 02:48 | 13.27271 | -68.08446 | 27631 ft | 412 kts | 239° |
| 2026-05-08 02:48 | 13.25672 | -68.10867 | 27140 ft | 410 kts | 238° |
| 2026-05-08 02:48 | 13.24079 | -68.13278 | 26647 ft | 408 kts | 239° |
| 2026-05-08 02:49 | 13.22492 | -68.15681 | 26156 ft | 406 kts | 238° |
| 2026-05-08 02:49 | 13.20913 | -68.18073 | 25673 ft | 404 kts | 238° |
| 2026-05-08 02:49 | 13.19344 | -68.20453 | 25183 ft | 403 kts | 238° |
| 2026-05-08 02:49 | 13.17779 | -68.22825 | 24700 ft | 401 kts | 238° |
| 2026-05-08 02:50 | 13.16215 | -68.25193 | 24212 ft | 399 kts | 237° |
| 2026-05-08 02:50 | 13.14666 | -68.27537 | 23722 ft | 397 kts | 237° |
| 2026-05-08 02:50 | 13.13122 | -68.29874 | 23244 ft | 395 kts | 237° |
| 2026-05-08 02:50 | 13.11584 | -68.32201 | 22762 ft | 394 kts | 237° |
| 2026-05-08 02:51 | 13.10054 | -68.34516 | 22285 ft | 392 kts | 237° |
| 2026-05-08 02:51 | 13.08530 | -68.36821 | 21819 ft | 391 kts | 237° |
| 2026-05-08 02:51 | 13.07010 | -68.39120 | 21340 ft | 389 kts | 236° |
| 2026-05-08 02:51 | 13.05495 | -68.41410 | 20863 ft | 388 kts | 237° |
| 2026-05-08 02:52 | 13.03986 | -68.43689 | 20389 ft | 386 kts | 236° |
| 2026-05-08 02:52 | 13.02482 | -68.45962 | 19911 ft | 385 kts | 236° |
| 2026-05-08 02:52 | 13.00985 | -68.48221 | 19437 ft | 383 kts | 237° |
| 2026-05-08 02:52 | 12.99499 | -68.50465 | 18965 ft | 381 kts | 237° |
| 2026-05-08 02:53 | 12.98017 | -68.52702 | 18498 ft | 378 kts | 237° |
| 2026-05-08 02:53 | 12.96546 | -68.54925 | 18024 ft | 376 kts | 237° |
| 2026-05-08 02:53 | 12.95084 | -68.57133 | 17567 ft | 374 kts | 236° |
| 2026-05-08 02:53 | 12.93628 | -68.59332 | 17099 ft | 372 kts | 237° |
| 2026-05-08 02:54 | 12.92183 | -68.61513 | 16646 ft | 369 kts | 237° |
| 2026-05-08 02:54 | 12.90747 | -68.63680 | 16184 ft | 367 kts | 236° |
| 2026-05-08 02:54 | 12.89317 | -68.65836 | 15724 ft | 364 kts | 236° |
| 2026-05-08 02:54 | 12.87891 | -68.67985 | 15263 ft | 362 kts | 236° |
| 2026-05-08 02:55 | 12.86474 | -68.70118 | 14807 ft | 359 kts | 236° |
| 2026-05-08 02:55 | 12.83690 | -68.74300 | 13917 ft | 344 kts | 236° |
| 2026-05-08 02:55 | 12.82363 | -68.76296 | 13494 ft | 334 kts | 236° |
| 2026-05-08 02:56 | 12.81070 | -68.78245 | 13074 ft | 326 kts | 236° |
| 2026-05-08 02:56 | 12.79805 | -68.80151 | 12666 ft | 324 kts | 236° |
| 2026-05-08 02:56 | 12.78538 | -68.82058 | 12251 ft | 323 kts | 236° |
| 2026-05-08 02:56 | 12.77276 | -68.83959 | 11837 ft | 323 kts | 235° |
| 2026-05-08 02:57 | 12.76019 | -68.85851 | 11428 ft | 321 kts | 235° |
| 2026-05-08 02:57 | 12.74762 | -68.87740 | 11020 ft | 320 kts | 235° |
| 2026-05-08 02:57 | 12.73511 | -68.89622 | 10607 ft | 319 kts | 234° |
| 2026-05-08 02:57 | 12.72264 | -68.91494 | 10199 ft | 318 kts | 234° |
| 2026-05-08 02:58 | 12.71029 | -68.93348 | 9971 ft | 309 kts | 234° |
| 2026-05-08 02:58 | 12.69845 | -68.95127 | 9963 ft | 296 kts | 234° |
| 2026-05-08 02:58 | 12.68703 | -68.96847 | 9966 ft | 289 kts | 234° |
| 2026-05-08 02:58 | 12.67558 | -68.98562 | 9973 ft | 295 kts | 234° |
| 2026-05-08 02:59 | 12.66389 | -69.00314 | 9970 ft | 299 kts | 234° |
| 2026-05-08 02:59 | 12.65214 | -69.02075 | 9963 ft | 299 kts | 234° |
| 2026-05-08 02:59 | 12.64039 | -69.03838 | 9965 ft | 298 kts | 234° |
| 2026-05-08 02:59 | 12.62867 | -69.05596 | 9967 ft | 299 kts | 234° |
| 2026-05-08 03:00 | 12.61692 | -69.07361 | 9966 ft | 300 kts | 234° |
| 2026-05-08 03:00 | 12.60521 | -69.09118 | 9902 ft | 295 kts | 234° |
| 2026-05-08 03:00 | 12.59377 | -69.10834 | 9678 ft | 290 kts | 234° |
| 2026-05-08 03:00 | 12.58234 | -69.12550 | 9233 ft | 293 kts | 233° |
| 2026-05-08 03:01 | 12.57084 | -69.14265 | 8859 ft | 292 kts | 232° |
| 2026-05-08 03:01 | 12.55779 | -69.15843 | 8494 ft | 289 kts | 219° |
| 2026-05-08 03:01 | 12.54069 | -69.16825 | 8151 ft | 279 kts | 190° |
| 2026-05-08 03:01 | 12.52166 | -69.16927 | 7839 ft | 270 kts | 172° |
| 2026-05-08 03:02 | 12.50293 | -69.16746 | 7480 ft | 269 kts | 171° |
| 2026-05-08 03:02 | 12.48429 | -69.16573 | 7146 ft | 267 kts | 172° |
| 2026-05-08 03:02 | 12.46573 | -69.16443 | 6812 ft | 266 kts | 173° |
| 2026-05-08 03:02 | 12.44729 | -69.16339 | 6500 ft | 262 kts | 174° |
| 2026-05-08 03:03 | 12.42919 | -69.16241 | 6151 ft | 258 kts | 173° |
| 2026-05-08 03:03 | 12.41140 | -69.16144 | 5836 ft | 252 kts | 173° |
| 2026-05-08 03:03 | 12.39397 | -69.16045 | 5517 ft | 248 kts | 173° |
| 2026-05-08 03:03 | 12.37680 | -69.15946 | 5203 ft | 244 kts | 172° |
| 2026-05-08 03:04 | 12.35990 | -69.15847 | 4895 ft | 241 kts | 172° |
| 2026-05-08 03:04 | 12.34322 | -69.15752 | 4589 ft | 238 kts | 172° |
| 2026-05-08 03:04 | 12.32675 | -69.15669 | 4279 ft | 235 kts | 173° |
| 2026-05-08 03:04 | 12.31036 | -69.15647 | 3901 ft | 235 kts | 174° |
| 2026-05-08 03:05 | 12.29448 | -69.15445 | 3412 ft | 225 kts | 152° |
| 2026-05-08 03:05 | 12.28203 | -69.14573 | 2951 ft | 213 kts | 129° |
| 2026-05-08 03:05 | 12.27057 | -69.13649 | 2701 ft | 209 kts | 145° |
| 2026-05-08 03:05 | 12.25693 | -69.13017 | 2065 ft | 221 kts | 151° |
| 2026-05-08 03:06 | 12.24273 | -69.12457 | 1711 ft | 215 kts | 152° |
| 2026-05-08 03:06 | 12.22857 | -69.11966 | 1364 ft | 209 kts | 152° |
| 2026-05-08 03:06 | 12.21697 | -69.11211 | 1206 ft | 183 kts | 125° |
| 2026-05-08 03:06 | 12.21091 | -69.10146 | 1132 ft | 172 kts | 106° |
| 2026-05-08 03:07 | 12.20896 | -69.09080 | 1377 ft | 135 kts | 93° |
| 2026-05-08 03:07 | 12.20841 | -69.08133 | 1499 ft | 133 kts | 89° |
| 2026-05-08 03:07 | 12.20821 | -69.07219 | 1792 ft | 125 kts | 92° |
| 2026-05-08 03:07 | 12.20756 | -69.06370 | 2006 ft | 119 kts | 93° |
| 2026-05-08 03:08 | 12.20721 | -69.05548 | 2032 ft | 113 kts | 89° |
| 2026-05-08 03:08 | 12.20668 | -69.04753 | 1765 ft | 111 kts | 92° |
| 2026-05-08 03:08 | 12.20565 | -69.03962 | 1448 ft | 114 kts | 97° |
| 2026-05-08 03:08 | 12.20379 | -69.03163 | 1308 ft | 118 kts | 101° |
| 2026-05-08 03:09 | 12.20184 | -69.02338 | 1174 ft | 120 kts | 99° |
| 2026-05-08 03:09 | 12.20064 | -69.01498 | 916 ft | 120 kts | 98° |
| 2026-05-08 03:09 | 12.19890 | -69.00653 | 708 ft | 122 kts | 101° |
| 2026-05-08 03:09 | 12.19707 | -68.99807 | 579 ft | 122 kts | 100° |
| 2026-05-08 03:10 | 12.19527 | -68.98946 | 443 ft | 123 kts | 101° |
| 2026-05-08 03:10 | 12.19347 | -68.98093 | 293 ft | 123 kts | 99° |
| 2026-05-08 03:10 | 12.19165 | -68.97230 | 161 ft | 125 kts | 101° |
| 2026-05-08 03:10 | 12.18970 | -68.96357 | 61 ft | 124 kts | 101° |
| 2026-05-08 03:11 | 12.18798 | -68.95544 | 45 ft | 115 kts | 100° |
| 2026-05-08 03:11 | 12.18636 | -68.94759 | 46 ft | 97 kts | 100° |
| 2026-05-08 03:11 | 12.18484 | -68.94364 | 49 ft | 32 kts | 171° |
| 2026-05-08 03:11 | 12.18403 | -68.94460 | 49 ft | 14 kts | 276° |
| 2026-05-08 03:12 | 12.18411 | -68.94537 | 48 ft | 6 kts | 282° |
| 2026-05-08 03:12 | 12.18436 | -68.94644 | 47 ft | 18 kts | 282° |
| 2026-05-08 03:12 | 12.18462 | -68.94774 | 47 ft | 18 kts | 281° |
| 2026-05-08 03:12 | 12.18487 | -68.94902 | 46 ft | 18 kts | 281° |
| 2026-05-08 03:13 | 12.18513 | -68.95029 | 45 ft | 18 kts | 282° |
| 2026-05-08 03:13 | 12.18541 | -68.95155 | 45 ft | 17 kts | 282° |
| 2026-05-08 03:13 | 12.18564 | -68.95277 | 44 ft | 17 kts | 281° |
| 2026-05-08 03:13 | 12.18584 | -68.95383 | 44 ft | 14 kts | 282° |
| 2026-05-08 03:14 | 12.18604 | -68.95482 | 44 ft | 14 kts | 282° |
| 2026-05-08 03:14 | 12.18618 | -68.95576 | 44 ft | 12 kts | 257° |
| 2026-05-08 03:14 | 12.18572 | -68.95623 | 44 ft | 8 kts | 197° |
| 2026-05-08 03:14 | 12.18543 | -68.95629 | 45 ft | 0 kts | 191° |